createdAt,value
2023-04-04T03:37:19.536Z,98745.34
2023-04-04T03:57:22.500Z,98745.28
2023-04-04T04:17:25.414Z,98744.37
2023-04-04T04:37:28.551Z,98734.31
2023-04-04T04:57:31.211Z,98733.13
2023-04-04T05:17:33.961Z,98745.34
2023-04-04T05:37:36.614Z,98746.44
2023-04-04T05:57:39.602Z,98748.38
2023-04-04T06:17:43.159Z,98759.25
2023-04-04T06:37:46.087Z,98753.88
2023-04-04T06:57:49.355Z,98753.28
2023-04-04T07:17:52.115Z,98756.72
2023-04-04T07:37:55.060Z,98740.81
2023-04-04T07:57:59.776Z,98740.03
2023-04-04T08:18:02.936Z,98740.69
2023-04-04T08:38:07.671Z,98735.47
2023-04-04T08:58:10.997Z,98730.84
2023-04-04T09:18:14.193Z,98706.06
2023-04-04T09:38:17.418Z,98682.41
2023-04-04T09:58:20.230Z,98698.03
2023-04-04T10:18:23.678Z,98691.31
2023-04-04T10:38:26.618Z,98694.22
2023-04-04T10:58:29.296Z,98681.97
2023-04-04T11:18:34.342Z,98667.91
2023-04-04T11:38:37.440Z,98669.75
2023-04-04T11:58:40.355Z,98669.50
2023-04-04T12:18:43.090Z,98645.34
2023-04-04T12:38:45.761Z,98666.16
2023-04-04T12:58:49.684Z,98667.91
2023-04-04T13:18:53.288Z,98657.75
2023-04-04T13:38:56.023Z,98679.53
2023-04-04T13:58:59.038Z,98682.22
2023-04-04T14:19:01.901Z,98669.75
2023-04-04T14:39:05.061Z,98667.44
2023-04-04T14:59:08.531Z,98664.34
2023-04-04T15:19:12.670Z,98654.38
2023-04-04T15:39:15.384Z,98644.09
2023-04-04T15:59:19.313Z,98637.50
2023-04-04T16:19:22.486Z,98648.69
2023-04-04T16:39:25.116Z,98651.19
2023-04-04T16:59:27.884Z,98651.19
2023-04-04T17:19:31.700Z,98667.50
2023-04-04T17:39:34.769Z,98678.47
2023-04-04T17:59:37.800Z,98685.25
2023-04-04T18:19:40.745Z,98718.78
2023-04-04T18:39:43.635Z,98727.44
2023-04-04T18:59:46.393Z,98719.91
2023-04-04T19:19:49.229Z,98719.66
2023-04-04T19:39:52.032Z,98721.00
2023-04-04T19:59:54.778Z,98711.34
2023-04-04T20:19:57.755Z,98711.34
2023-04-04T20:40:00.707Z,98711.41
2023-04-04T21:00:05.995Z,98711.81
